sensor_id;sensor_type;location;lat;lon;timestamp;pressure;altitude;pressure_sealevel;temperature;humidity
11347;BME280;5728;42.722;23.258;2022-10-26T00:01:29;95213.59;;;16.03;77.35
11347;BME280;5728;42.722;23.258;2022-10-26T00:03:56;95215.72;;;15.88;77.80
11347;BME280;5728;42.722;23.258;2022-10-26T00:06:24;95221.47;;;16.01;77.38
11347;BME280;5728;42.722;23.258;2022-10-26T00:08:52;95220.72;;;15.98;77.89
11347;BME280;5728;42.722;23.258;2022-10-26T00:11:20;95217.28;;;15.95;78.12
11347;BME280;5728;42.722;23.258;2022-10-26T00:13:49;95212.94;;;15.94;78.29
11347;BME280;5728;42.722;23.258;2022-10-26T00:16:18;95220.66;;;15.99;77.69
11347;BME280;5728;42.722;23.258;2022-10-26T00:18:45;95225.38;;;15.86;78.27
11347;BME280;5728;42.722;23.258;2022-10-26T00:21:12;95217.09;;;15.71;78.94
11347;BME280;5728;42.722;23.258;2022-10-26T00:23:39;95221.06;;;15.85;78.37
11347;BME280;5728;42.722;23.258;2022-10-26T00:26:07;95223.03;;;15.77;79.24
11347;BME280;5728;42.722;23.258;2022-10-26T00:28:35;95226.81;;;15.67;79.56
11347;BME280;5728;42.722;23.258;2022-10-26T00:31:04;95219.84;;;15.68;79.50
11347;BME280;5728;42.722;23.258;2022-10-26T00:33:31;95221.16;;;15.82;79.21
11347;BME280;5728;42.722;23.258;2022-10-26T00:35:58;95228.34;;;15.74;79.75
11347;BME280;5728;42.722;23.258;2022-10-26T00:38:25;95231.97;;;15.70;79.86
11347;BME280;5728;42.722;23.258;2022-10-26T00:40:52;95231.34;;;15.61;80.14
11347;BME280;5728;42.722;23.258;2022-10-26T00:43:36;95223.19;;;15.71;79.75
11347;BME280;5728;42.722;23.258;2022-10-26T00:46:09;95228.97;;;15.52;80.46
11347;BME280;5728;42.722;23.258;2022-10-26T00:48:40;95218.59;;;15.50;80.77
11347;BME280;5728;42.722;23.258;2022-10-26T00:51:11;95219.69;;;15.72;79.88
11347;BME280;5728;42.722;23.258;2022-10-26T00:53:39;95214.50;;;15.71;79.58
11347;BME280;5728;42.722;23.258;2022-10-26T00:56:06;95217.28;;;15.65;79.41
11347;BME280;5728;42.722;23.258;2022-10-26T00:58:34;95214.53;;;15.69;79.08
11347;BME280;5728;42.722;23.258;2022-10-26T01:01:01;95215.16;;;15.48;79.75
11347;BME280;5728;42.722;23.258;2022-10-26T01:03:29;95215.72;;;15.59;79.68
11347;BME280;5728;42.722;23.258;2022-10-26T01:05:57;95210.75;;;15.50;80.21
11347;BME280;5728;42.722;23.258;2022-10-26T01:08:25;95215.66;;;15.61;79.45
11347;BME280;5728;42.722;23.258;2022-10-26T01:10:53;95209.00;;;15.49;79.93
11347;BME280;5728;42.722;23.258;2022-10-26T01:13:21;95213.28;;;15.19;80.26
11347;BME280;5728;42.722;23.258;2022-10-26T01:15:55;95203.41;;;14.97;81.11
11347;BME280;5728;42.722;23.258;2022-10-26T01:18:35;95204.59;;;14.50;81.62
11347;BME280;5728;42.722;23.258;2022-10-26T01:21:17;95211.03;;;14.70;80.90
11347;BME280;5728;42.722;23.258;2022-10-26T01:24:01;95204.81;;;14.76;80.75
11347;BME280;5728;42.722;23.258;2022-10-26T01:26:50;95207.03;;;14.91;79.39
11347;BME280;5728;42.722;23.258;2022-10-26T01:32:26;95213.13;;;14.92;80.28
11347;BME280;5728;42.722;23.258;2022-10-26T01:34:57;95208.13;;;14.83;80.80
11347;BME280;5728;42.722;23.258;2022-10-26T01:37:30;95205.06;;;14.65;81.23
11347;BME280;5728;42.722;23.258;2022-10-26T01:40:05;95208.19;;;14.44;82.04
11347;BME280;5728;42.722;23.258;2022-10-26T01:42:36;95193.00;;;14.61;81.66
11347;BME280;5728;42.722;23.258;2022-10-26T01:45:08;95196.22;;;14.36;83.11
11347;BME280;5728;42.722;23.258;2022-10-26T01:47:37;95194.72;;;14.62;81.63
11347;BME280;5728;42.722;23.258;2022-10-26T01:50:06;95193.97;;;14.57;81.80
11347;BME280;5728;42.722;23.258;2022-10-26T01:52:34;95191.19;;;14.63;80.98
11347;BME280;5728;42.722;23.258;2022-10-26T01:55:01;95195.97;;;14.46;81.94
11347;BME280;5728;42.722;23.258;2022-10-26T01:57:31;95196.41;;;14.65;80.99
11347;BME280;5728;42.722;23.258;2022-10-26T02:00:05;95190.06;;;14.74;80.56
11347;BME280;5728;42.722;23.258;2022-10-26T02:02:59;95187.38;;;14.41;81.46
11347;BME280;5728;42.722;23.258;2022-10-26T02:08:40;95188.00;;;14.14;82.76
11347;BME280;5728;42.722;23.258;2022-10-26T02:11:20;95199.38;;;14.10;82.94
11347;BME280;5728;42.722;23.258;2022-10-26T02:13:54;95197.44;;;14.18;83.04
11347;BME280;5728;42.722;23.258;2022-10-26T02:16:24;95187.75;;;13.85;84.68
11347;BME280;5728;42.722;23.258;2022-10-26T02:18:58;95203.59;;;13.76;85.45
11347;BME280;5728;42.722;23.258;2022-10-26T02:21:32;95195.78;;;13.76;85.50
11347;BME280;5728;42.722;23.258;2022-10-26T02:24:00;95200.28;;;13.68;86.23
11347;BME280;5728;42.722;23.258;2022-10-26T02:26:31;95197.41;;;13.81;85.55
11347;BME280;5728;42.722;23.258;2022-10-26T02:29:01;95202.78;;;13.74;86.00
11347;BME280;5728;42.722;23.258;2022-10-26T02:31:30;95201.75;;;13.81;85.70
11347;BME280;5728;42.722;23.258;2022-10-26T02:34:02;95200.84;;;13.83;86.51
11347;BME280;5728;42.722;23.258;2022-10-26T02:36:32;95202.47;;;13.89;86.55
11347;BME280;5728;42.722;23.258;2022-10-26T02:39:02;95198.94;;;13.91;87.13
11347;BME280;5728;42.722;23.258;2022-10-26T02:41:29;95205.22;;;13.81;88.21
11347;BME280;5728;42.722;23.258;2022-10-26T02:44:03;95203.66;;;13.73;88.53
11347;BME280;5728;42.722;23.258;2022-10-26T03:15:27;95229.03;;;14.06;89.01
11347;BME280;5728;42.722;23.258;2022-10-26T03:17:54;95230.66;;;14.12;88.18
11347;BME280;5728;42.722;23.258;2022-10-26T03:20:21;95231.41;;;14.15;88.34
11347;BME280;5728;42.722;23.258;2022-10-26T03:22:48;95243.16;;;13.96;89.37
11347;BME280;5728;42.722;23.258;2022-10-26T03:25:14;95245.78;;;13.94;89.16
11347;BME280;5728;42.722;23.258;2022-10-26T03:27:42;95242.13;;;14.03;89.04
11347;BME280;5728;42.722;23.258;2022-10-26T03:30:09;95241.56;;;13.87;89.38
11347;BME280;5728;42.722;23.258;2022-10-26T03:32:38;95250.47;;;13.79;90.36
11347;BME280;5728;42.722;23.258;2022-10-26T03:35:05;95244.31;;;13.81;89.94
11347;BME280;5728;42.722;23.258;2022-10-26T03:37:32;95247.84;;;13.79;90.06
11347;BME280;5728;42.722;23.258;2022-10-26T03:39:58;95240.97;;;13.75;90.79
11347;BME280;5728;42.722;23.258;2022-10-26T03:42:25;95236.91;;;13.62;90.74
11347;BME280;5728;42.722;23.258;2022-10-26T03:44:52;95245.31;;;13.76;90.93
11347;BME280;5728;42.722;23.258;2022-10-26T03:47:19;95247.84;;;13.79;91.22
11347;BME280;5728;42.722;23.258;2022-10-26T03:49:47;95244.44;;;13.75;90.83
11347;BME280;5728;42.722;23.258;2022-10-26T03:52:13;95251.34;;;13.78;91.14
11347;BME280;5728;42.722;23.258;2022-10-26T03:54:40;95236.66;;;13.74;90.83
11347;BME280;5728;42.722;23.258;2022-10-26T03:57:07;95243.56;;;13.75;90.70
11347;BME280;5728;42.722;23.258;2022-10-26T03:59:33;95254.75;;;13.81;90.29
11347;BME280;5728;42.722;23.258;2022-10-26T04:02:01;95251.44;;;13.73;90.34
11347;BME280;5728;42.722;23.258;2022-10-26T04:04:28;95251.53;;;13.69;90.32
11347;BME280;5728;42.722;23.258;2022-10-26T04:06:56;95255.94;;;13.65;90.45
11347;BME280;5728;42.722;23.258;2022-10-26T04:09:23;95255.97;;;13.64;90.26
11347;BME280;5728;42.722;23.258;2022-10-26T04:11:50;95251.00;;;13.52;91.04
11347;BME280;5728;42.722;23.258;2022-10-26T04:14:17;95258.72;;;13.55;91.29
11347;BME280;5728;42.722;23.258;2022-10-26T04:16:44;95259.69;;;13.51;91.42
11347;BME280;5728;42.722;23.258;2022-10-26T04:22:34;95243.25;;;13.49;92.58
11347;BME280;5728;42.722;23.258;2022-10-26T04:25:01;95247.19;;;13.68;92.38
11347;BME280;5728;42.722;23.258;2022-10-26T04:27:28;95262.00;;;13.66;92.46
11347;BME280;5728;42.722;23.258;2022-10-26T04:29:55;95251.63;;;13.64;92.56
11347;BME280;5728;42.722;23.258;2022-10-26T04:32:21;95250.81;;;13.61;92.69
11347;BME280;5728;42.722;23.258;2022-10-26T04:34:48;95252.69;;;13.53;92.91
11347;BME280;5728;42.722;23.258;2022-10-26T04:37:17;95249.66;;;13.75;92.24
11347;BME280;5728;42.722;23.258;2022-10-26T04:39:45;95266.34;;;13.65;92.56
11347;BME280;5728;42.722;23.258;2022-10-26T04:42:12;95261.03;;;13.70;92.27
11347;BME280;5728;42.722;23.258;2022-10-26T04:44:39;95267.13;;;13.72;91.94
11347;BME280;5728;42.722;23.258;2022-10-26T04:47:06;95275.00;;;13.69;91.40
11347;BME280;5728;42.722;23.258;2022-10-26T04:49:32;95269.81;;;13.66;92.22
11347;BME280;5728;42.722;23.258;2022-10-26T04:51:59;95271.72;;;13.58;92.18
11347;BME280;5728;42.722;23.258;2022-10-26T04:54:26;95274.94;;;13.72;91.70
11347;BME280;5728;42.722;23.258;2022-10-26T04:56:54;95275.03;;;13.66;92.01
11347;BME280;5728;42.722;23.258;2022-10-26T04:59:21;95276.19;;;13.51;92.38
11347;BME280;5728;42.722;23.258;2022-10-26T05:01:48;95280.78;;;13.38;92.39
11347;BME280;5728;42.722;23.258;2022-10-26T05:04:14;95270.16;;;13.48;92.56
11347;BME280;5728;42.722;23.258;2022-10-26T05:06:41;95278.03;;;13.44;92.59
11347;BME280;5728;42.722;23.258;2022-10-26T05:09:08;95275.31;;;13.51;92.52
11347;BME280;5728;42.722;23.258;2022-10-26T05:11:34;95278.13;;;13.41;92.57
11347;BME280;5728;42.722;23.258;2022-10-26T05:14:03;95281.41;;;13.50;92.81
11347;BME280;5728;42.722;23.258;2022-10-26T05:16:29;95279.03;;;13.37;91.86
11347;BME280;5728;42.722;23.258;2022-10-26T05:18:56;95277.97;;;13.49;91.45
11347;BME280;5728;42.722;23.258;2022-10-26T05:21:23;95283.31;;;13.41;92.47
11347;BME280;5728;42.722;23.258;2022-10-26T05:23:50;95288.66;;;13.34;91.76
11347;BME280;5728;42.722;23.258;2022-10-26T05:26:18;95284.19;;;13.40;92.88
11347;BME280;5728;42.722;23.258;2022-10-26T05:28:45;95284.78;;;13.55;91.97
11347;BME280;5728;42.722;23.258;2022-10-26T05:31:13;95293.38;;;13.61;91.52
11347;BME280;5728;42.722;23.258;2022-10-26T05:33:40;95301.97;;;13.66;91.44
11347;BME280;5728;42.722;23.258;2022-10-26T05:36:07;95293.25;;;13.67;91.15
11347;BME280;5728;42.722;23.258;2022-10-26T05:38:34;95293.84;;;13.80;90.87
11347;BME280;5728;42.722;23.258;2022-10-26T05:41:00;95306.31;;;13.66;91.69
11347;BME280;5728;42.722;23.258;2022-10-26T05:43:27;95304.38;;;13.77;90.98
11347;BME280;5728;42.722;23.258;2022-10-26T05:45:54;95303.97;;;13.96;90.83
11347;BME280;5728;42.722;23.258;2022-10-26T05:48:22;95305.16;;;13.82;91.41
11347;BME280;5728;42.722;23.258;2022-10-26T05:50:49;95310.94;;;13.96;90.40
11347;BME280;5728;42.722;23.258;2022-10-26T05:53:16;95309.09;;;14.01;90.21
11347;BME280;5728;42.722;23.258;2022-10-26T05:55:44;95314.41;;;13.96;90.36
11347;BME280;5728;42.722;23.258;2022-10-26T05:58:12;95315.59;;;14.23;89.87
11347;BME280;5728;42.722;23.258;2022-10-26T06:00:50;95315.44;;;14.32;88.89
11347;BME280;5728;42.722;23.258;2022-10-26T06:03:31;95323.47;;;14.20;88.79
11347;BME280;5728;42.722;23.258;2022-10-26T06:06:02;95333.53;;;14.40;88.31
11347;BME280;5728;42.722;23.258;2022-10-26T06:08:29;95334.53;;;14.34;88.11
11347;BME280;5728;42.722;23.258;2022-10-26T06:10:57;95334.25;;;14.46;88.33
11347;BME280;5728;42.722;23.258;2022-10-26T06:13:25;95330.84;;;14.43;87.80
11347;BME280;5728;42.722;23.258;2022-10-26T06:16:06;95339.09;;;14.64;86.58
11347;BME280;5728;42.722;23.258;2022-10-26T06:18:43;95338.81;;;14.77;85.80
11347;BME280;5728;42.722;23.258;2022-10-26T06:54:57;95360.41;;;16.21;79.35
11347;BME280;5728;42.722;23.258;2022-10-26T06:57:27;95359.16;;;16.36;79.20
11347;BME280;5728;42.722;23.258;2022-10-26T06:59:59;95363.63;;;16.63;78.44
11347;BME280;5728;42.722;23.258;2022-10-26T07:02:27;95359.16;;;16.94;77.66
11347;BME280;5728;42.722;23.258;2022-10-26T07:04:54;95365.28;;;16.95;76.58
11347;BME280;5728;42.722;23.258;2022-10-26T07:07:22;95367.66;;;17.02;77.10
11347;BME280;5728;42.722;23.258;2022-10-26T07:09:51;95368.03;;;17.18;76.90
11347;BME280;5728;42.722;23.258;2022-10-26T07:12:20;95357.44;;;17.49;75.90
11347;BME280;5728;42.722;23.258;2022-10-26T07:14:47;95356.66;;;17.73;75.23
11347;BME280;5728;42.722;23.258;2022-10-26T07:17:13;95363.91;;;17.65;74.98
11347;BME280;5728;42.722;23.258;2022-10-26T07:19:41;95358.38;;;17.99;74.64
11347;BME280;5728;42.722;23.258;2022-10-26T07:22:09;95356.03;;;17.91;73.61
11347;BME280;5728;42.722;23.258;2022-10-26T07:24:35;95355.50;;;17.81;73.22
11347;BME280;5728;42.722;23.258;2022-10-26T07:27:03;95360.81;;;18.05;73.21
11347;BME280;5728;42.722;23.258;2022-10-26T07:29:31;95364.03;;;18.61;73.37
11347;BME280;5728;42.722;23.258;2022-10-26T07:31:59;95367.50;;;18.63;70.16
11347;BME280;5728;42.722;23.258;2022-10-26T07:34:26;95360.72;;;18.31;70.96
11347;BME280;5728;42.722;23.258;2022-10-26T07:36:53;95369.53;;;18.55;70.96
11347;BME280;5728;42.722;23.258;2022-10-26T07:39:20;95363.81;;;17.94;70.93
11347;BME280;5728;42.722;23.258;2022-10-26T07:41:47;95354.44;;;17.87;72.15
11347;BME280;5728;42.722;23.258;2022-10-26T07:44:13;95350.88;;;17.88;72.14
11347;BME280;5728;42.722;23.258;2022-10-26T07:46:42;95358.47;;;18.20;71.93
11347;BME280;5728;42.722;23.258;2022-10-26T07:49:09;95354.22;;;18.66;69.22
11347;BME280;5728;42.722;23.258;2022-10-26T07:51:36;95357.09;;;18.10;70.69
11347;BME280;5728;42.722;23.258;2022-10-26T07:54:06;95360.84;;;18.28;70.60
11347;BME280;5728;42.722;23.258;2022-10-26T07:56:32;95354.41;;;18.36;69.79
11347;BME280;5728;42.722;23.258;2022-10-26T07:58:59;95351.09;;;18.79;68.30
11347;BME280;5728;42.722;23.258;2022-10-26T08:01:26;95350.22;;;19.02;67.90
11347;BME280;5728;42.722;23.258;2022-10-26T08:03:54;95343.06;;;19.27;66.33
11347;BME280;5728;42.722;23.258;2022-10-26T08:06:22;95351.16;;;19.44;65.04
11347;BME280;5728;42.722;23.258;2022-10-26T08:08:49;95346.25;;;19.35;65.93
11347;BME280;5728;42.722;23.258;2022-10-26T08:11:16;95348.47;;;19.88;64.80
11347;BME280;5728;42.722;23.258;2022-10-26T08:13:43;95356.41;;;20.28;63.31
11347;BME280;5728;42.722;23.258;2022-10-26T08:16:10;95351.53;;;20.19;61.38
11347;BME280;5728;42.722;23.258;2022-10-26T08:18:37;95358.34;;;20.63;60.80
11347;BME280;5728;42.722;23.258;2022-10-26T08:21:08;95348.09;;;20.94;59.12
11347;BME280;5728;42.722;23.258;2022-10-26T08:23:36;95344.59;;;21.50;58.31
11347;BME280;5728;42.722;23.258;2022-10-26T08:26:03;95338.00;;;22.11;56.83
11347;BME280;5728;42.722;23.258;2022-10-26T08:28:30;95331.78;;;22.12;55.54
11347;BME280;5728;42.722;23.258;2022-10-26T08:30:57;95346.41;;;20.93;58.15
11347;BME280;5728;42.722;23.258;2022-10-26T08:33:24;95346.53;;;21.82;56.00
11347;BME280;5728;42.722;23.258;2022-10-26T08:35:54;95351.28;;;22.27;54.92
11347;BME280;5728;42.722;23.258;2022-10-26T08:38:23;95340.97;;;22.72;52.69
11347;BME280;5728;42.722;23.258;2022-10-26T08:40:50;95342.44;;;22.61;52.12
11347;BME280;5728;42.722;23.258;2022-10-26T08:43:21;95341.66;;;21.92;52.78
11347;BME280;5728;42.722;23.258;2022-10-26T08:45:56;95342.53;;;21.38;54.88
11347;BME280;5728;42.722;23.258;2022-10-26T08:48:26;95350.69;;;21.69;53.83
11347;BME280;5728;42.722;23.258;2022-10-26T08:50:56;95348.41;;;22.14;51.89
11347;BME280;5728;42.722;23.258;2022-10-26T08:53:29;95354.94;;;21.54;53.70
11347;BME280;5728;42.722;23.258;2022-10-26T08:56:03;95358.94;;;22.49;52.13
11347;BME280;5728;42.722;23.258;2022-10-26T08:58:36;95364.72;;;22.05;52.02
11347;BME280;5728;42.722;23.258;2022-10-26T09:01:07;95356.63;;;22.08;52.21
11347;BME280;5728;42.722;23.258;2022-10-26T09:03:34;95355.81;;;21.72;53.79
11347;BME280;5728;42.722;23.258;2022-10-26T09:06:12;95350.19;;;22.81;50.98
11347;BME280;5728;42.722;23.258;2022-10-26T09:08:52;95355.00;;;23.38;49.56
11347;BME280;5728;42.722;23.258;2022-10-26T09:11:32;95353.91;;;23.88;48.06
11347;BME280;5728;42.722;23.258;2022-10-26T09:14:10;95348.63;;;24.02;46.17
11347;BME280;5728;42.722;23.258;2022-10-26T09:16:45;95348.34;;;24.22;45.38
11347;BME280;5728;42.722;23.258;2022-10-26T09:19:33;95348.91;;;23.68;46.47
11347;BME280;5728;42.722;23.258;2022-10-26T09:22:04;95352.72;;;24.23;45.27
11347;BME280;5728;42.722;23.258;2022-10-26T09:24:38;95358.69;;;23.34;46.80
11347;BME280;5728;42.722;23.258;2022-10-26T09:27:11;95344.53;;;23.35;47.27
11347;BME280;5728;42.722;23.258;2022-10-26T09:29:41;95345.78;;;23.91;46.00
11347;BME280;5728;42.722;23.258;2022-10-26T09:32:13;95337.13;;;23.58;44.70
11347;BME280;5728;42.722;23.258;2022-10-26T09:34:46;95346.00;;;24.02;45.41
11347;BME280;5728;42.722;23.258;2022-10-26T09:37:17;95342.94;;;24.67;43.34
11347;BME280;5728;42.722;23.258;2022-10-26T09:39:51;95344.84;;;24.65;43.16
11347;BME280;5728;42.722;23.258;2022-10-26T09:42:26;95334.22;;;24.65;43.16
11347;BME280;5728;42.722;23.258;2022-10-26T09:45:00;95339.06;;;23.99;43.46
11347;BME280;5728;42.722;23.258;2022-10-26T09:47:33;95339.19;;;23.53;45.15
11347;BME280;5728;42.722;23.258;2022-10-26T09:50:14;95331.81;;;24.33;43.79
11347;BME280;5728;42.722;23.258;2022-10-26T09:52:43;95330.81;;;24.63;41.56
11347;BME280;5728;42.722;23.258;2022-10-26T09:55:12;95334.00;;;24.40;42.96
11347;BME280;5728;42.722;23.258;2022-10-26T09:57:41;95335.78;;;25.12;40.11
11347;BME280;5728;42.722;23.258;2022-10-26T10:00:14;95324.56;;;25.88;38.71
11347;BME280;5728;42.722;23.258;2022-10-26T10:02:43;95326.50;;;26.26;39.07
11347;BME280;5728;42.722;23.258;2022-10-26T10:05:29;95324.16;;;26.34;38.71
11347;BME280;5728;42.722;23.258;2022-10-26T10:08:12;95315.78;;;26.52;38.56
11347;BME280;5728;42.722;23.258;2022-10-26T10:10:53;95319.69;;;24.87;41.18
11347;BME280;5728;42.722;23.258;2022-10-26T10:13:21;95317.94;;;24.71;42.75
11347;BME280;5728;42.722;23.258;2022-10-26T10:15:52;95311.13;;;25.65;40.20
11347;BME280;5728;42.722;23.258;2022-10-26T10:18:20;95305.41;;;25.83;38.75
11347;BME280;5728;42.722;23.258;2022-10-26T10:20:54;95307.91;;;26.38;38.48
11347;BME280;5728;42.722;23.258;2022-10-26T10:23:27;95304.81;;;27.07;36.74
11347;BME280;5728;42.722;23.258;2022-10-26T10:26:03;95295.28;;;27.65;36.69
11347;BME280;5728;42.722;23.258;2022-10-26T10:28:30;95314.06;;;26.26;37.65
11347;BME280;5728;42.722;23.258;2022-10-26T10:30:59;95300.44;;;26.43;37.34
11347;BME280;5728;42.722;23.258;2022-10-26T10:33:34;95297.78;;;25.52;38.52
11347;BME280;5728;42.722;23.258;2022-10-26T10:36:05;95303.53;;;24.75;40.38
11347;BME280;5728;42.722;23.258;2022-10-26T10:38:37;95299.25;;;24.01;41.66
11347;BME280;5728;42.722;23.258;2022-10-26T10:41:14;95287.22;;;24.25;41.84
11347;BME280;5728;42.722;23.258;2022-10-26T10:43:44;95282.78;;;25.78;38.56
11347;BME280;5728;42.722;23.258;2022-10-26T10:46:17;95291.56;;;26.82;36.28
11347;BME280;5728;42.722;23.258;2022-10-26T10:48:52;95282.81;;;27.29;35.33
11347;BME280;5728;42.722;23.258;2022-10-26T10:51:22;95281.84;;;26.81;35.82
11347;BME280;5728;42.722;23.258;2022-10-26T10:53:52;95279.91;;;27.45;35.48
11347;BME280;5728;42.722;23.258;2022-10-26T10:56:30;95275.53;;;27.07;35.08
11347;BME280;5728;42.722;23.258;2022-10-26T10:59:23;95283.00;;;27.51;34.07
11347;BME280;5728;42.722;23.258;2022-10-26T11:02:08;95272.78;;;27.33;34.26
11347;BME280;5728;42.722;23.258;2022-10-26T11:04:50;95271.72;;;26.36;34.55
11347;BME280;5728;42.722;23.258;2022-10-26T11:07:24;95267.00;;;26.02;35.59
11347;BME280;5728;42.722;23.258;2022-10-26T11:09:52;95274.81;;;26.30;35.20
11347;BME280;5728;42.722;23.258;2022-10-26T11:12:25;95266.44;;;27.22;33.47
11347;BME280;5728;42.722;23.258;2022-10-26T11:14:58;95267.25;;;26.99;33.67
11347;BME280;5728;42.722;23.258;2022-10-26T11:17:30;95271.50;;;27.38;32.80
11347;BME280;5728;42.722;23.258;2022-10-26T11:19:59;95265.13;;;26.29;33.91
11347;BME280;5728;42.722;23.258;2022-10-26T11:22:30;95266.72;;;26.44;33.14
11347;BME280;5728;42.722;23.258;2022-10-26T11:25:03;95260.94;;;27.37;32.41
11347;BME280;5728;42.722;23.258;2022-10-26T11:27:38;95267.41;;;27.58;31.80
11347;BME280;5728;42.722;23.258;2022-10-26T11:30:14;95257.47;;;26.87;32.34
11347;BME280;5728;42.722;23.258;2022-10-26T11:32:45;95270.13;;;25.81;33.05
11347;BME280;5728;42.722;23.258;2022-10-26T11:35:16;95260.03;;;26.26;32.73
11347;BME280;5728;42.722;23.258;2022-10-26T11:37:48;95256.19;;;26.68;31.76
11347;BME280;5728;42.722;23.258;2022-10-26T11:40:25;95260.84;;;27.38;30.86
11347;BME280;5728;42.722;23.258;2022-10-26T11:43:04;95251.75;;;26.68;31.23
11347;BME280;5728;42.722;23.258;2022-10-26T11:48:05;95249.28;;;26.65;30.93
11347;BME280;5728;42.722;23.258;2022-10-26T11:50:35;95253.75;;;26.77;31.14
11347;BME280;5728;42.722;23.258;2022-10-26T11:53:09;95244.06;;;26.76;30.86
11347;BME280;5728;42.722;23.258;2022-10-26T11:55:39;95244.06;;;26.51;31.08
11347;BME280;5728;42.722;23.258;2022-10-26T11:58:09;95249.25;;;27.03;30.11
11347;BME280;5728;42.722;23.258;2022-10-26T12:00:44;95252.00;;;27.50;28.44
11347;BME280;5728;42.722;23.258;2022-10-26T12:03:16;95252.63;;;27.54;29.11
11347;BME280;5728;42.722;23.258;2022-10-26T12:05:48;95241.03;;;28.35;27.94
11347;BME280;5728;42.722;23.258;2022-10-26T12:08:19;95252.25;;;28.63;27.45
11347;BME280;5728;42.722;23.258;2022-10-26T12:10:50;95243.50;;;28.50;28.04
11347;BME280;5728;42.722;23.258;2022-10-26T12:13:26;95248.63;;;27.83;28.84
11347;BME280;5728;42.722;23.258;2022-10-26T12:15:59;95242.88;;;27.29;29.31
11347;BME280;5728;42.722;23.258;2022-10-26T12:18:36;95253.56;;;27.76;28.51
11347;BME280;5728;42.722;23.258;2022-10-26T12:21:05;95242.44;;;26.74;29.41
11347;BME280;5728;42.722;23.258;2022-10-26T12:23:35;95245.09;;;26.11;31.11
11347;BME280;5728;42.722;23.258;2022-10-26T12:29:43;95238.13;;;26.60;30.16
11347;BME280;5728;42.722;23.258;2022-10-26T12:35:39;95232.59;;;26.25;30.70
11347;BME280;5728;42.722;23.258;2022-10-26T12:41:24;95236.72;;;26.17;29.81
11347;BME280;5728;42.722;23.258;2022-10-26T12:43:55;95237.22;;;26.97;29.13
11347;BME280;5728;42.722;23.258;2022-10-26T12:46:42;95230.13;;;26.85;29.09
11347;BME280;5728;42.722;23.258;2022-10-26T12:52:42;95235.34;;;26.36;29.62
11347;BME280;5728;42.722;23.258;2022-10-26T13:07:23;95245.09;;;26.99;26.94
11347;BME280;5728;42.722;23.258;2022-10-26T13:10:00;95247.72;;;27.11;26.66
11347;BME280;5728;42.722;23.258;2022-10-26T13:12:36;95249.38;;;26.51;27.19
11347;BME280;5728;42.722;23.258;2022-10-26T13:15:15;95236.84;;;26.15;27.63
11347;BME280;5728;42.722;23.258;2022-10-26T13:17:52;95246.09;;;25.83;27.70
11347;BME280;5728;42.722;23.258;2022-10-26T13:20:22;95240.00;;;26.08;27.51
11347;BME280;5728;42.722;23.258;2022-10-26T13:22:48;95245.56;;;26.30;26.95
11347;BME280;5728;42.722;23.258;2022-10-26T13:25:21;95238.13;;;26.22;26.41
11347;BME280;5728;42.722;23.258;2022-10-26T13:28:02;95247.56;;;25.35;27.93
11347;BME280;5728;42.722;23.258;2022-10-26T13:30:43;95245.41;;;25.27;28.50
11347;BME280;5728;42.722;23.258;2022-10-26T13:33:19;95247.56;;;25.21;27.67
11347;BME280;5728;42.722;23.258;2022-10-26T13:35:50;95244.53;;;24.72;28.25
11347;BME280;5728;42.722;23.258;2022-10-26T13:38:22;95257.88;;;24.70;28.28
11347;BME280;5728;42.722;23.258;2022-10-26T13:40:52;95241.97;;;24.42;28.43
11347;BME280;5728;42.722;23.258;2022-10-26T13:43:24;95252.00;;;24.37;28.62
11347;BME280;5728;42.722;23.258;2022-10-26T13:45:54;95247.78;;;23.91;28.77
11347;BME280;5728;42.722;23.258;2022-10-26T13:48:29;95260.69;;;23.52;30.23
11347;BME280;5728;42.722;23.258;2022-10-26T13:51:00;95252.53;;;23.40;31.82
11347;BME280;5728;42.722;23.258;2022-10-26T13:53:36;95254.13;;;23.27;31.84
11347;BME280;5728;42.722;23.258;2022-10-26T13:56:09;95262.22;;;23.24;32.33
11347;BME280;5728;42.722;23.258;2022-10-26T13:58:41;95261.63;;;23.19;32.21
11347;BME280;5728;42.722;23.258;2022-10-26T14:01:12;95255.00;;;22.97;33.87
11347;BME280;5728;42.722;23.258;2022-10-26T14:03:41;95256.00;;;22.78;32.96
11347;BME280;5728;42.722;23.258;2022-10-26T14:06:15;95260.56;;;22.59;33.48
11347;BME280;5728;42.722;23.258;2022-10-26T14:08:43;95261.75;;;22.54;33.25
11347;BME280;5728;42.722;23.258;2022-10-26T14:11:14;95265.56;;;22.15;33.42
11347;BME280;5728;42.722;23.258;2022-10-26T14:13:42;95259.28;;;22.18;33.93
11347;BME280;5728;42.722;23.258;2022-10-26T14:16:09;95266.03;;;22.23;33.55
11347;BME280;5728;42.722;23.258;2022-10-26T14:18:37;95266.56;;;21.97;34.38
11347;BME280;5728;42.722;23.258;2022-10-26T14:21:05;95262.03;;;21.99;34.27
11347;BME280;5728;42.722;23.258;2022-10-26T14:23:36;95271.19;;;22.09;34.63
11347;BME280;5728;42.722;23.258;2022-10-26T14:26:03;95260.75;;;22.23;34.07
11347;BME280;5728;42.722;23.258;2022-10-26T14:28:31;95271.28;;;21.91;34.65
11347;BME280;5728;42.722;23.258;2022-10-26T14:31:20;95262.41;;;21.75;34.58
11347;BME280;5728;42.722;23.258;2022-10-26T14:33:47;95268.09;;;21.67;34.87
11347;BME280;5728;42.722;23.258;2022-10-26T14:36:15;95268.88;;;21.86;35.48
11347;BME280;5728;42.722;23.258;2022-10-26T14:38:45;95264.50;;;21.51;34.92
11347;BME280;5728;42.722;23.258;2022-10-26T14:41:16;95262.00;;;21.65;35.09
11347;BME280;5728;42.722;23.258;2022-10-26T14:43:44;95270.69;;;21.50;34.76
11347;BME280;5728;42.722;23.258;2022-10-26T14:46:13;95269.25;;;21.61;34.55
11347;BME280;5728;42.722;23.258;2022-10-26T14:48:50;95264.34;;;21.37;34.53
11347;BME280;5728;42.722;23.258;2022-10-26T14:51:19;95271.00;;;21.44;34.64
11347;BME280;5728;42.722;23.258;2022-10-26T14:53:49;95267.56;;;21.25;35.17
11347;BME280;5728;42.722;23.258;2022-10-26T14:56:21;95267.91;;;21.36;35.65
11347;BME280;5728;42.722;23.258;2022-10-26T14:58:49;95275.53;;;21.59;34.76